sensor_id;sensor_type;location;lat;lon;timestamp;temperature;humidity
55711;DHT22;41612;51.994;5.880;2023-12-20T00:01:20;7.00;89.70
55711;DHT22;41612;51.994;5.880;2023-12-20T00:03:46;7.00;89.60
55711;DHT22;41612;51.994;5.880;2023-12-20T00:06:12;7.00;89.50
55711;DHT22;41612;51.994;5.880;2023-12-20T00:08:37;7.00;89.40
55711;DHT22;41612;51.994;5.880;2023-12-20T00:11:03;7.00;89.40
55711;DHT22;41612;51.994;5.880;2023-12-20T00:13:29;6.90;89.40
55711;DHT22;41612;51.994;5.880;2023-12-20T00:15:54;6.90;89.30
55711;DHT22;41612;51.994;5.880;2023-12-20T00:18:20;6.90;89.30
55711;DHT22;41612;51.994;5.880;2023-12-20T00:20:46;6.90;89.40
55711;DHT22;41612;51.994;5.880;2023-12-20T00:23:11;6.90;89.60
55711;DHT22;41612;51.994;5.880;2023-12-20T00:25:37;7.00;89.60
55711;DHT22;41612;51.994;5.880;2023-12-20T00:28:03;7.00;89.50
55711;DHT22;41612;51.994;5.880;2023-12-20T00:30:28;6.90;89.30
55711;DHT22;41612;51.994;5.880;2023-12-20T00:32:55;6.80;89.20
55711;DHT22;41612;51.994;5.880;2023-12-20T00:35:21;6.80;89.10
55711;DHT22;41612;51.994;5.880;2023-12-20T00:37:47;6.70;89.20
55711;DHT22;41612;51.994;5.880;2023-12-20T00:40:12;6.70;89.30
55711;DHT22;41612;51.994;5.880;2023-12-20T00:42:38;6.70;89.40
55711;DHT22;41612;51.994;5.880;2023-12-20T00:45:04;6.60;89.40
55711;DHT22;41612;51.994;5.880;2023-12-20T00:47:31;6.60;89.40
55711;DHT22;41612;51.994;5.880;2023-12-20T00:49:57;6.60;89.60
55711;DHT22;41612;51.994;5.880;2023-12-20T00:52:23;6.60;89.60
55711;DHT22;41612;51.994;5.880;2023-12-20T00:54:49;6.50;89.70
55711;DHT22;41612;51.994;5.880;2023-12-20T00:57:15;6.50;89.60
55711;DHT22;41612;51.994;5.880;2023-12-20T00:59:41;6.50;89.60
55711;DHT22;41612;51.994;5.880;2023-12-20T01:02:06;6.50;89.70
55711;DHT22;41612;51.994;5.880;2023-12-20T01:04:32;6.50;89.80
55711;DHT22;41612;51.994;5.880;2023-12-20T01:06:58;6.50;89.80
55711;DHT22;41612;51.994;5.880;2023-12-20T01:09:23;6.40;89.60
55711;DHT22;41612;51.994;5.880;2023-12-20T01:11:52;6.40;89.60
55711;DHT22;41612;51.994;5.880;2023-12-20T01:14:17;6.40;89.80
55711;DHT22;41612;51.994;5.880;2023-12-20T01:16:43;6.30;89.80
55711;DHT22;41612;51.994;5.880;2023-12-20T01:19:09;6.30;89.90
55711;DHT22;41612;51.994;5.880;2023-12-20T01:21:34;6.30;89.90
55711;DHT22;41612;51.994;5.880;2023-12-20T01:24:00;6.30;89.90
55711;DHT22;41612;51.994;5.880;2023-12-20T01:26:26;6.30;90.00
55711;DHT22;41612;51.994;5.880;2023-12-20T01:28:51;6.30;89.90
55711;DHT22;41612;51.994;5.880;2023-12-20T01:31:17;6.30;89.80
55711;DHT22;41612;51.994;5.880;2023-12-20T01:33:44;6.30;89.80
55711;DHT22;41612;51.994;5.880;2023-12-20T01:36:10;6.30;89.80
55711;DHT22;41612;51.994;5.880;2023-12-20T01:38:37;6.30;89.80
55711;DHT22;41612;51.994;5.880;2023-12-20T01:41:02;6.30;89.80
55711;DHT22;41612;51.994;5.880;2023-12-20T01:43:28;6.30;89.80
55711;DHT22;41612;51.994;5.880;2023-12-20T01:45:57;6.20;89.80
55711;DHT22;41612;51.994;5.880;2023-12-20T01:48:24;6.20;89.80
55711;DHT22;41612;51.994;5.880;2023-12-20T01:50:50;6.20;89.80
55711;DHT22;41612;51.994;5.880;2023-12-20T01:53:17;6.20;89.80
55711;DHT22;41612;51.994;5.880;2023-12-20T01:55:44;6.20;89.80
55711;DHT22;41612;51.994;5.880;2023-12-20T01:58:11;6.20;89.70
55711;DHT22;41612;51.994;5.880;2023-12-20T02:00:37;6.30;89.80
55711;DHT22;41612;51.994;5.880;2023-12-20T02:03:04;6.30;89.90
55711;DHT22;41612;51.994;5.880;2023-12-20T02:05:31;6.30;89.80
55711;DHT22;41612;51.994;5.880;2023-12-20T02:07:57;6.30;89.70
55711;DHT22;41612;51.994;5.880;2023-12-20T02:10:23;6.30;89.60
55711;DHT22;41612;51.994;5.880;2023-12-20T02:12:49;6.30;89.60
55711;DHT22;41612;51.994;5.880;2023-12-20T02:15:14;6.30;89.60
55711;DHT22;41612;51.994;5.880;2023-12-20T02:17:40;6.30;89.50
55711;DHT22;41612;51.994;5.880;2023-12-20T02:20:06;6.30;89.50
55711;DHT22;41612;51.994;5.880;2023-12-20T02:22:32;6.30;89.50
55711;DHT22;41612;51.994;5.880;2023-12-20T02:24:58;6.30;89.40
55711;DHT22;41612;51.994;5.880;2023-12-20T02:27:24;6.30;89.40
55711;DHT22;41612;51.994;5.880;2023-12-20T02:29:50;6.30;89.50
55711;DHT22;41612;51.994;5.880;2023-12-20T02:32:17;6.30;89.60
55711;DHT22;41612;51.994;5.880;2023-12-20T02:34:43;6.30;89.60
55711;DHT22;41612;51.994;5.880;2023-12-20T02:37:08;6.30;89.60
55711;DHT22;41612;51.994;5.880;2023-12-20T02:39:34;6.30;89.50
55711;DHT22;41612;51.994;5.880;2023-12-20T02:42:00;6.30;89.50
55711;DHT22;41612;51.994;5.880;2023-12-20T02:44:25;6.40;89.50
55711;DHT22;41612;51.994;5.880;2023-12-20T02:46:51;6.40;89.50
55711;DHT22;41612;51.994;5.880;2023-12-20T02:49:17;6.50;89.40
55711;DHT22;41612;51.994;5.880;2023-12-20T02:51:42;6.50;89.30
55711;DHT22;41612;51.994;5.880;2023-12-20T02:54:08;6.50;89.20
55711;DHT22;41612;51.994;5.880;2023-12-20T02:56:33;6.50;89.30
55711;DHT22;41612;51.994;5.880;2023-12-20T02:59:01;6.50;89.30
55711;DHT22;41612;51.994;5.880;2023-12-20T03:01:27;6.50;89.20
55711;DHT22;41612;51.994;5.880;2023-12-20T03:03:53;6.60;89.10
55711;DHT22;41612;51.994;5.880;2023-12-20T03:06:19;6.60;89.20
55711;DHT22;41612;51.994;5.880;2023-12-20T03:08:45;6.60;89.10
55711;DHT22;41612;51.994;5.880;2023-12-20T03:11:11;6.60;89.00
55711;DHT22;41612;51.994;5.880;2023-12-20T03:13:36;6.60;88.90
55711;DHT22;41612;51.994;5.880;2023-12-20T03:16:11;6.60;88.80
55711;DHT22;41612;51.994;5.880;2023-12-20T03:18:37;6.50;88.80
55711;DHT22;41612;51.994;5.880;2023-12-20T03:21:04;6.50;88.70
55711;DHT22;41612;51.994;5.880;2023-12-20T03:23:30;6.50;88.80
55711;DHT22;41612;51.994;5.880;2023-12-20T03:25:56;6.50;88.80
55711;DHT22;41612;51.994;5.880;2023-12-20T03:28:22;6.50;88.90
55711;DHT22;41612;51.994;5.880;2023-12-20T03:30:48;6.50;88.90
55711;DHT22;41612;51.994;5.880;2023-12-20T03:33:14;6.40;88.90
55711;DHT22;41612;51.994;5.880;2023-12-20T03:35:39;6.40;88.90
55711;DHT22;41612;51.994;5.880;2023-12-20T03:38:05;6.40;88.90
55711;DHT22;41612;51.994;5.880;2023-12-20T03:40:31;6.30;88.90
55711;DHT22;41612;51.994;5.880;2023-12-20T03:42:56;6.30;89.00
55711;DHT22;41612;51.994;5.880;2023-12-20T03:45:22;6.30;89.00
55711;DHT22;41612;51.994;5.880;2023-12-20T03:47:47;6.40;89.00
55711;DHT22;41612;51.994;5.880;2023-12-20T03:50:14;6.30;89.10
55711;DHT22;41612;51.994;5.880;2023-12-20T03:52:39;6.40;89.00
55711;DHT22;41612;51.994;5.880;2023-12-20T03:55:07;6.40;89.00
55711;DHT22;41612;51.994;5.880;2023-12-20T03:57:33;6.40;89.00
55711;DHT22;41612;51.994;5.880;2023-12-20T03:59:59;6.30;89.00
55711;DHT22;41612;51.994;5.880;2023-12-20T04:02:24;6.40;88.90
55711;DHT22;41612;51.994;5.880;2023-12-20T04:04:50;6.40;89.00
55711;DHT22;41612;51.994;5.880;2023-12-20T04:07:16;6.40;89.10
55711;DHT22;41612;51.994;5.880;2023-12-20T04:09:41;6.50;89.10
55711;DHT22;41612;51.994;5.880;2023-12-20T04:12:07;6.50;88.80
55711;DHT22;41612;51.994;5.880;2023-12-20T04:14:33;6.50;88.80
55711;DHT22;41612;51.994;5.880;2023-12-20T04:16:58;6.60;88.60
55711;DHT22;41612;51.994;5.880;2023-12-20T04:19:24;6.60;88.40
55711;DHT22;41612;51.994;5.880;2023-12-20T04:21:50;6.60;88.30
55711;DHT22;41612;51.994;5.880;2023-12-20T04:24:17;6.70;88.20
55711;DHT22;41612;51.994;5.880;2023-12-20T04:26:42;6.70;88.20
55711;DHT22;41612;51.994;5.880;2023-12-20T04:29:08;6.70;88.10
55711;DHT22;41612;51.994;5.880;2023-12-20T04:31:36;6.70;88.10
55711;DHT22;41612;51.994;5.880;2023-12-20T04:34:02;6.70;88.10
55711;DHT22;41612;51.994;5.880;2023-12-20T04:36:28;6.70;88.20
55711;DHT22;41612;51.994;5.880;2023-12-20T04:38:55;6.70;88.20
55711;DHT22;41612;51.994;5.880;2023-12-20T04:41:21;6.70;88.10
55711;DHT22;41612;51.994;5.880;2023-12-20T04:43:46;6.70;88.10
55711;DHT22;41612;51.994;5.880;2023-12-20T04:46:12;6.80;88.00
55711;DHT22;41612;51.994;5.880;2023-12-20T04:48:37;6.80;88.20
55711;DHT22;41612;51.994;5.880;2023-12-20T04:51:03;6.80;88.10
55711;DHT22;41612;51.994;5.880;2023-12-20T04:53:29;6.70;88.10
55711;DHT22;41612;51.994;5.880;2023-12-20T04:55:55;6.70;88.00
55711;DHT22;41612;51.994;5.880;2023-12-20T04:58:20;6.80;87.80
55711;DHT22;41612;51.994;5.880;2023-12-20T05:00:46;6.80;87.90
55711;DHT22;41612;51.994;5.880;2023-12-20T05:03:11;6.80;87.60
55711;DHT22;41612;51.994;5.880;2023-12-20T05:05:37;6.80;87.70
55711;DHT22;41612;51.994;5.880;2023-12-20T05:08:03;6.90;87.50
55711;DHT22;41612;51.994;5.880;2023-12-20T05:10:29;6.90;87.60
55711;DHT22;41612;51.994;5.880;2023-12-20T05:12:55;7.00;87.60
55711;DHT22;41612;51.994;5.880;2023-12-20T05:15:20;7.00;87.60
55711;DHT22;41612;51.994;5.880;2023-12-20T05:17:46;7.00;87.50
55711;DHT22;41612;51.994;5.880;2023-12-20T05:20:12;7.10;87.20
55711;DHT22;41612;51.994;5.880;2023-12-20T05:22:37;7.10;87.10
55711;DHT22;41612;51.994;5.880;2023-12-20T05:25:04;7.10;87.40
55711;DHT22;41612;51.994;5.880;2023-12-20T05:27:30;7.10;87.10
55711;DHT22;41612;51.994;5.880;2023-12-20T05:29:55;7.10;86.90
55711;DHT22;41612;51.994;5.880;2023-12-20T05:32:23;7.10;87.00
55711;DHT22;41612;51.994;5.880;2023-12-20T05:34:49;7.10;86.60
55711;DHT22;41612;51.994;5.880;2023-12-20T05:37:14;7.10;86.80
55711;DHT22;41612;51.994;5.880;2023-12-20T05:39:40;7.20;86.80
55711;DHT22;41612;51.994;5.880;2023-12-20T05:42:06;7.20;86.70
55711;DHT22;41612;51.994;5.880;2023-12-20T05:44:31;7.20;86.60
55711;DHT22;41612;51.994;5.880;2023-12-20T05:46:57;7.20;86.50
55711;DHT22;41612;51.994;5.880;2023-12-20T05:49:22;7.20;86.40
55711;DHT22;41612;51.994;5.880;2023-12-20T05:51:48;7.30;86.20
55711;DHT22;41612;51.994;5.880;2023-12-20T05:54:14;7.30;86.10
55711;DHT22;41612;51.994;5.880;2023-12-20T05:56:40;7.30;86.10
55711;DHT22;41612;51.994;5.880;2023-12-20T05:59:05;7.30;86.00
55711;DHT22;41612;51.994;5.880;2023-12-20T06:01:31;7.30;86.00
55711;DHT22;41612;51.994;5.880;2023-12-20T06:03:57;7.30;85.90
55711;DHT22;41612;51.994;5.880;2023-12-20T06:06:23;7.30;85.90
55711;DHT22;41612;51.994;5.880;2023-12-20T06:08:49;7.30;85.90
55711;DHT22;41612;51.994;5.880;2023-12-20T06:11:14;7.30;85.90
55711;DHT22;41612;51.994;5.880;2023-12-20T06:13:40;7.40;85.90
55711;DHT22;41612;51.994;5.880;2023-12-20T06:16:06;7.40;85.70
55711;DHT22;41612;51.994;5.880;2023-12-20T06:18:34;7.30;85.90
55711;DHT22;41612;51.994;5.880;2023-12-20T06:20:59;7.30;86.00
55711;DHT22;41612;51.994;5.880;2023-12-20T06:23:25;7.30;85.60
55711;DHT22;41612;51.994;5.880;2023-12-20T06:25:51;7.30;85.60
55711;DHT22;41612;51.994;5.880;2023-12-20T06:28:16;7.30;85.70
55711;DHT22;41612;51.994;5.880;2023-12-20T06:30:42;7.30;85.60
55711;DHT22;41612;51.994;5.880;2023-12-20T06:33:07;7.30;85.50
55711;DHT22;41612;51.994;5.880;2023-12-20T06:35:35;7.30;85.50
55711;DHT22;41612;51.994;5.880;2023-12-20T06:38:01;7.30;85.70
55711;DHT22;41612;51.994;5.880;2023-12-20T06:40:26;7.30;85.60
55711;DHT22;41612;51.994;5.880;2023-12-20T06:42:52;7.30;85.20
55711;DHT22;41612;51.994;5.880;2023-12-20T06:45:18;7.30;85.30
55711;DHT22;41612;51.994;5.880;2023-12-20T06:47:43;7.30;85.30
55711;DHT22;41612;51.994;5.880;2023-12-20T06:50:09;7.30;85.40
55711;DHT22;41612;51.994;5.880;2023-12-20T06:52:35;7.30;85.40
55711;DHT22;41612;51.994;5.880;2023-12-20T06:55:01;7.30;85.30
55711;DHT22;41612;51.994;5.880;2023-12-20T06:57:27;7.30;85.30
55711;DHT22;41612;51.994;5.880;2023-12-20T06:59:53;7.30;85.20
55711;DHT22;41612;51.994;5.880;2023-12-20T07:02:18;7.30;85.20
55711;DHT22;41612;51.994;5.880;2023-12-20T07:04:44;7.40;85.30
55711;DHT22;41612;51.994;5.880;2023-12-20T07:07:10;7.40;85.20
55711;DHT22;41612;51.994;5.880;2023-12-20T07:09:35;7.40;85.10
55711;DHT22;41612;51.994;5.880;2023-12-20T07:12:01;7.40;85.20
55711;DHT22;41612;51.994;5.880;2023-12-20T07:14:27;7.40;85.10
55711;DHT22;41612;51.994;5.880;2023-12-20T07:16:53;7.40;85.00
55711;DHT22;41612;51.994;5.880;2023-12-20T07:19:19;7.40;85.00
55711;DHT22;41612;51.994;5.880;2023-12-20T07:21:45;7.40;85.10
55711;DHT22;41612;51.994;5.880;2023-12-20T07:24:10;7.40;84.90
55711;DHT22;41612;51.994;5.880;2023-12-20T07:26:36;7.40;85.00
55711;DHT22;41612;51.994;5.880;2023-12-20T07:29:03;7.40;85.10
55711;DHT22;41612;51.994;5.880;2023-12-20T07:31:29;7.50;84.90
55711;DHT22;41612;51.994;5.880;2023-12-20T07:33:55;7.40;85.10
55711;DHT22;41612;51.994;5.880;2023-12-20T07:36:22;7.50;85.10
55711;DHT22;41612;51.994;5.880;2023-12-20T07:38:47;7.50;85.00
55711;DHT22;41612;51.994;5.880;2023-12-20T07:41:13;7.50;85.10
55711;DHT22;41612;51.994;5.880;2023-12-20T07:43:41;7.40;85.00
55711;DHT22;41612;51.994;5.880;2023-12-20T07:46:08;7.40;85.10
55711;DHT22;41612;51.994;5.880;2023-12-20T07:48:37;7.50;85.20
55711;DHT22;41612;51.994;5.880;2023-12-20T07:51:03;7.50;85.00
55711;DHT22;41612;51.994;5.880;2023-12-20T07:53:32;7.50;85.00
55711;DHT22;41612;51.994;5.880;2023-12-20T07:55:58;7.50;84.80
55711;DHT22;41612;51.994;5.880;2023-12-20T07:58:23;7.50;84.90
55711;DHT22;41612;51.994;5.880;2023-12-20T08:00:52;7.60;85.00
55711;DHT22;41612;51.994;5.880;2023-12-20T08:03:20;7.60;84.80
55711;DHT22;41612;51.994;5.880;2023-12-20T08:05:46;7.60;84.80
55711;DHT22;41612;51.994;5.880;2023-12-20T08:08:12;7.60;84.70
55711;DHT22;41612;51.994;5.880;2023-12-20T08:10:38;7.60;84.80
55711;DHT22;41612;51.994;5.880;2023-12-20T08:13:03;7.70;84.80
55711;DHT22;41612;51.994;5.880;2023-12-20T08:15:34;7.70;84.70
55711;DHT22;41612;51.994;5.880;2023-12-20T08:18:00;7.70;84.80
55711;DHT22;41612;51.994;5.880;2023-12-20T08:20:26;7.70;84.50
55711;DHT22;41612;51.994;5.880;2023-12-20T08:22:51;7.70;84.60
55711;DHT22;41612;51.994;5.880;2023-12-20T08:25:17;7.70;84.60
55711;DHT22;41612;51.994;5.880;2023-12-20T08:27:42;7.70;84.60
55711;DHT22;41612;51.994;5.880;2023-12-20T08:30:09;7.70;84.40
55711;DHT22;41612;51.994;5.880;2023-12-20T08:32:35;7.70;84.50
55711;DHT22;41612;51.994;5.880;2023-12-20T08:35:00;7.70;84.20
55711;DHT22;41612;51.994;5.880;2023-12-20T08:37:28;7.70;84.30
55711;DHT22;41612;51.994;5.880;2023-12-20T08:39:55;7.70;84.30
55711;DHT22;41612;51.994;5.880;2023-12-20T08:42:21;7.70;84.40
55711;DHT22;41612;51.994;5.880;2023-12-20T08:44:46;7.70;84.30
55711;DHT22;41612;51.994;5.880;2023-12-20T08:47:12;7.70;84.60
55711;DHT22;41612;51.994;5.880;2023-12-20T08:49:41;7.70;84.50
55711;DHT22;41612;51.994;5.880;2023-12-20T08:52:09;7.80;84.50
55711;DHT22;41612;51.994;5.880;2023-12-20T08:54:35;7.80;84.50
55711;DHT22;41612;51.994;5.880;2023-12-20T08:57:00;7.80;84.30
55711;DHT22;41612;51.994;5.880;2023-12-20T08:59:26;7.80;84.50
55711;DHT22;41612;51.994;5.880;2023-12-20T09:01:52;7.80;84.50
55711;DHT22;41612;51.994;5.880;2023-12-20T09:04:20;7.70;84.90
55711;DHT22;41612;51.994;5.880;2023-12-20T09:06:46;7.70;84.90
55711;DHT22;41612;51.994;5.880;2023-12-20T09:09:12;7.70;85.00
55711;DHT22;41612;51.994;5.880;2023-12-20T09:11:42;7.60;85.40
55711;DHT22;41612;51.994;5.880;2023-12-20T09:14:10;7.50;85.60
55711;DHT22;41612;51.994;5.880;2023-12-20T09:16:37;7.50;86.20
55711;DHT22;41612;51.994;5.880;2023-12-20T09:19:06;7.50;86.20
55711;DHT22;41612;51.994;5.880;2023-12-20T09:21:31;7.50;86.20
55711;DHT22;41612;51.994;5.880;2023-12-20T09:23:58;7.50;86.40
55711;DHT22;41612;51.994;5.880;2023-12-20T09:26:24;7.50;86.40
55711;DHT22;41612;51.994;5.880;2023-12-20T09:28:50;7.40;86.70
55711;DHT22;41612;51.994;5.880;2023-12-20T09:31:16;7.50;86.60
55711;DHT22;41612;51.994;5.880;2023-12-20T09:33:45;7.50;86.80
55711;DHT22;41612;51.994;5.880;2023-12-20T09:36:11;7.40;87.20
55711;DHT22;41612;51.994;5.880;2023-12-20T09:38:41;7.40;87.10
55711;DHT22;41612;51.994;5.880;2023-12-20T09:41:07;7.40;87.10
55711;DHT22;41612;51.994;5.880;2023-12-20T09:43:38;7.40;87.10
55711;DHT22;41612;51.994;5.880;2023-12-20T09:46:06;7.50;87.30
55711;DHT22;41612;51.994;5.880;2023-12-20T09:48:33;7.40;87.20
55711;DHT22;41612;51.994;5.880;2023-12-20T09:50:59;7.50;87.60
55711;DHT22;41612;51.994;5.880;2023-12-20T09:53:33;7.40;87.60
55711;DHT22;41612;51.994;5.880;2023-12-20T09:56:44;7.50;87.20
55711;DHT22;41612;51.994;5.880;2023-12-20T09:59:17;7.40;87.60
55711;DHT22;41612;51.994;5.880;2023-12-20T10:01:43;7.40;87.90
55711;DHT22;41612;51.994;5.880;2023-12-20T10:04:10;7.40;88.00
55711;DHT22;41612;51.994;5.880;2023-12-20T10:06:41;7.50;87.70
55711;DHT22;41612;51.994;5.880;2023-12-20T10:09:07;7.50;87.60
55711;DHT22;41612;51.994;5.880;2023-12-20T10:11:39;7.50;87.80
55711;DHT22;41612;51.994;5.880;2023-12-20T10:14:10;7.50;88.00
55711;DHT22;41612;51.994;5.880;2023-12-20T10:16:36;7.50;87.90
55711;DHT22;41612;51.994;5.880;2023-12-20T10:19:02;7.50;87.90
55711;DHT22;41612;51.994;5.880;2023-12-20T10:21:28;7.50;87.90
55711;DHT22;41612;51.994;5.880;2023-12-20T10:23:57;7.60;88.00
55711;DHT22;41612;51.994;5.880;2023-12-20T10:26:26;7.60;87.50
55711;DHT22;41612;51.994;5.880;2023-12-20T10:28:59;7.70;87.40
55711;DHT22;41612;51.994;5.880;2023-12-20T10:31:28;7.70;87.10
55711;DHT22;41612;51.994;5.880;2023-12-20T10:33:56;7.70;87.00
55711;DHT22;41612;51.994;5.880;2023-12-20T10:36:24;7.80;87.10
55711;DHT22;41612;51.994;5.880;2023-12-20T10:38:52;7.80;86.70
55711;DHT22;41612;51.994;5.880;2023-12-20T10:41:29;7.90;87.20
55711;DHT22;41612;51.994;5.880;2023-12-20T10:44:04;7.90;87.20
55711;DHT22;41612;51.994;5.880;2023-12-20T10:46:34;7.90;86.80
55711;DHT22;41612;51.994;5.880;2023-12-20T10:49:02;7.90;87.20
55711;DHT22;41612;51.994;5.880;2023-12-20T10:51:28;7.80;87.40
55711;DHT22;41612;51.994;5.880;2023-12-20T10:53:56;7.80;87.40
55711;DHT22;41612;51.994;5.880;2023-12-20T10:56:22;7.80;87.50
55711;DHT22;41612;51.994;5.880;2023-12-20T10:58:49;7.90;87.10
55711;DHT22;41612;51.994;5.880;2023-12-20T11:01:16;7.80;87.40
55711;DHT22;41612;51.994;5.880;2023-12-20T11:03:49;7.90;87.30
55711;DHT22;41612;51.994;5.880;2023-12-20T11:06:36;7.90;87.40
55711;DHT22;41612;51.994;5.880;2023-12-20T11:09:25;7.90;87.70
55711;DHT22;41612;51.994;5.880;2023-12-20T11:12:16;8.00;87.70
55711;DHT22;41612;51.994;5.880;2023-12-20T11:14:47;8.00;87.30
55711;DHT22;41612;51.994;5.880;2023-12-20T11:17:14;8.00;87.40
55711;DHT22;41612;51.994;5.880;2023-12-20T11:22:29;8.10;87.00
55711;DHT22;41612;51.994;5.880;2023-12-20T11:24:58;8.20;86.90
55711;DHT22;41612;51.994;5.880;2023-12-20T11:27:24;8.20;86.60
55711;DHT22;41612;51.994;5.880;2023-12-20T11:29:55;8.20;86.70
55711;DHT22;41612;51.994;5.880;2023-12-20T11:37:38;8.40;86.50
55711;DHT22;41612;51.994;5.880;2023-12-20T11:40:11;8.50;86.40
55711;DHT22;41612;51.994;5.880;2023-12-20T11:42:41;8.50;86.10
55711;DHT22;41612;51.994;5.880;2023-12-20T11:45:11;8.50;86.00
55711;DHT22;41612;51.994;5.880;2023-12-20T11:47:42;8.60;85.90
55711;DHT22;41612;51.994;5.880;2023-12-20T11:50:07;8.60;85.30
55711;DHT22;41612;51.994;5.880;2023-12-20T11:52:33;8.70;85.70
55711;DHT22;41612;51.994;5.880;2023-12-20T11:54:59;8.80;85.30
55711;DHT22;41612;51.994;5.880;2023-12-20T11:57:25;8.80;84.70
55711;DHT22;41612;51.994;5.880;2023-12-20T11:59:51;8.90;84.10
55711;DHT22;41612;51.994;5.880;2023-12-20T12:02:17;8.80;84.30
55711;DHT22;41612;51.994;5.880;2023-12-20T12:04:42;8.80;84.00
55711;DHT22;41612;51.994;5.880;2023-12-20T12:07:08;8.80;84.00
55711;DHT22;41612;51.994;5.880;2023-12-20T12:09:35;8.80;84.10
55711;DHT22;41612;51.994;5.880;2023-12-20T12:12:01;8.80;83.90
55711;DHT22;41612;51.994;5.880;2023-12-20T12:14:27;8.70;83.70
55711;DHT22;41612;51.994;5.880;2023-12-20T12:16:53;8.70;83.60
55711;DHT22;41612;51.994;5.880;2023-12-20T12:19:26;8.80;83.70
55711;DHT22;41612;51.994;5.880;2023-12-20T12:22:04;8.80;83.80
55711;DHT22;41612;51.994;5.880;2023-12-20T12:24:32;8.90;83.90
55711;DHT22;41612;51.994;5.880;2023-12-20T12:26:58;8.90;83.40
55711;DHT22;41612;51.994;5.880;2023-12-20T12:29:24;8.90;83.40
55711;DHT22;41612;51.994;5.880;2023-12-20T12:31:52;9.00;82.90
55711;DHT22;41612;51.994;5.880;2023-12-20T12:34:18;9.10;83.30
55711;DHT22;41612;51.994;5.880;2023-12-20T12:36:44;9.10;83.00
55711;DHT22;41612;51.994;5.880;2023-12-20T12:39:12;9.10;82.70
55711;DHT22;41612;51.994;5.880;2023-12-20T12:41:41;9.10;82.60
55711;DHT22;41612;51.994;5.880;2023-12-20T12:44:06;9.00;82.40
55711;DHT22;41612;51.994;5.880;2023-12-20T12:46:32;9.00;82.50
55711;DHT22;41612;51.994;5.880;2023-12-20T12:48:58;9.10;82.50
55711;DHT22;41612;51.994;5.880;2023-12-20T12:51:24;9.00;82.50
55711;DHT22;41612;51.994;5.880;2023-12-20T12:53:49;9.00;82.80
55711;DHT22;41612;51.994;5.880;2023-12-20T12:56:15;9.00;83.00
55711;DHT22;41612;51.994;5.880;2023-12-20T12:58:41;9.00;82.60
55711;DHT22;41612;51.994;5.880;2023-12-20T13:01:07;9.00;82.90
55711;DHT22;41612;51.994;5.880;2023-12-20T13:03:33;9.00;82.60
55711;DHT22;41612;51.994;5.880;2023-12-20T13:05:59;9.00;82.90
55711;DHT22;41612;51.994;5.880;2023-12-20T13:08:26;9.10;82.90
55711;DHT22;41612;51.994;5.880;2023-12-20T13:10:52;9.20;83.00
55711;DHT22;41612;51.994;5.880;2023-12-20T13:13:18;9.20;83.00
55711;DHT22;41612;51.994;5.880;2023-12-20T13:15:43;9.30;82.50
55711;DHT22;41612;51.994;5.880;2023-12-20T13:18:18;9.30;82.20
55711;DHT22;41612;51.994;5.880;2023-12-20T13:20:44;9.40;82.10
55711;DHT22;41612;51.994;5.880;2023-12-20T13:23:10;9.40;81.60
55711;DHT22;41612;51.994;5.880;2023-12-20T13:25:35;9.30;81.70
55711;DHT22;41612;51.994;5.880;2023-12-20T13:28:01;9.30;81.70
55711;DHT22;41612;51.994;5.880;2023-12-20T13:30:28;9.30;81.70
55711;DHT22;41612;51.994;5.880;2023-12-20T13:32:54;9.30;81.70
55711;DHT22;41612;51.994;5.880;2023-12-20T13:35:20;9.30;82.00
55711;DHT22;41612;51.994;5.880;2023-12-20T13:37:46;9.30;82.10
55711;DHT22;41612;51.994;5.880;2023-12-20T13:40:12;9.30;81.90
55711;DHT22;41612;51.994;5.880;2023-12-20T13:42:38;9.20;82.10
55711;DHT22;41612;51.994;5.880;2023-12-20T13:45:05;9.20;82.20
55711;DHT22;41612;51.994;5.880;2023-12-20T13:47:32;9.20;82.00
55711;DHT22;41612;51.994;5.880;2023-12-20T13:49:57;9.20;82.20
55711;DHT22;41612;51.994;5.880;2023-12-20T13:52:23;9.20;82.30
55711;DHT22;41612;51.994;5.880;2023-12-20T13:54:49;9.20;82.60
55711;DHT22;41612;51.994;5.880;2023-12-20T13:57:14;9.10;82.70
55711;DHT22;41612;51.994;5.880;2023-12-20T13:59:40;9.20;82.50
55711;DHT22;41612;51.994;5.880;2023-12-20T14:02:06;9.20;82.60
55711;DHT22;41612;51.994;5.880;2023-12-20T14:04:37;9.20;82.70
55711;DHT22;41612;51.994;5.880;2023-12-20T14:07:46;9.20;82.70
55711;DHT22;41612;51.994;5.880;2023-12-20T14:11:00;9.20;82.90
55711;DHT22;41612;51.994;5.880;2023-12-20T14:13:37;9.20;82.50
55711;DHT22;41612;51.994;5.880;2023-12-20T14:16:22;9.20;82.70
55711;DHT22;41612;51.994;5.880;2023-12-20T14:18:49;9.20;82.30
55711;DHT22;41612;51.994;5.880;2023-12-20T14:21:14;9.20;82.20
55711;DHT22;41612;51.994;5.880;2023-12-20T14:23:40;9.20;82.30
55711;DHT22;41612;51.994;5.880;2023-12-20T14:26:06;9.20;81.90
55711;DHT22;41612;51.994;5.880;2023-12-20T14:28:31;9.30;82.00
55711;DHT22;41612;51.994;5.880;2023-12-20T14:30:57;9.20;81.90
55711;DHT22;41612;51.994;5.880;2023-12-20T14:33:23;9.20;81.70
55711;DHT22;41612;51.994;5.880;2023-12-20T14:35:48;9.20;81.80
55711;DHT22;41612;51.994;5.880;2023-12-20T14:38:14;9.20;81.80
55711;DHT22;41612;51.994;5.880;2023-12-20T14:40:41;9.30;81.90
55711;DHT22;41612;51.994;5.880;2023-12-20T14:43:09;9.20;81.80
55711;DHT22;41612;51.994;5.880;2023-12-20T14:45:35;9.20;81.90
55711;DHT22;41612;51.994;5.880;2023-12-20T14:48:02;9.20;81.80
55711;DHT22;41612;51.994;5.880;2023-12-20T14:50:27;9.30;81.50
55711;DHT22;41612;51.994;5.880;2023-12-20T14:52:53;9.30;81.70
55711;DHT22;41612;51.994;5.880;2023-12-20T14:55:20;9.30;81.70
55711;DHT22;41612;51.994;5.880;2023-12-20T14:57:46;9.30;81.50
55711;DHT22;41612;51.994;5.880;2023-12-20T15:00:12;9.20;81.50
55711;DHT22;41612;51.994;5.880;2023-12-20T15:02:42;9.20;81.60
55711;DHT22;41612;51.994;5.880;2023-12-20T15:05:11;9.20;81.80
55711;DHT22;41612;51.994;5.880;2023-12-20T15:07:37;9.20;81.90
55711;DHT22;41612;51.994;5.880;2023-12-20T15:10:03;9.20;81.90
55711;DHT22;41612;51.994;5.880;2023-12-20T15:12:29;9.20;82.10
55711;DHT22;41612;51.994;5.880;2023-12-20T15:14:55;9.20;82.10
55711;DHT22;41612;51.994;5.880;2023-12-20T15:17:21;9.20;82.10
55711;DHT22;41612;51.994;5.880;2023-12-20T15:19:46;9.20;82.10
55711;DHT22;41612;51.994;5.880;2023-12-20T15:22:12;9.20;82.20
55711;DHT22;41612;51.994;5.880;2023-12-20T15:24:38;9.20;82.30
55711;DHT22;41612;51.994;5.880;2023-12-20T15:27:06;9.10;82.40
55711;DHT22;41612;51.994;5.880;2023-12-20T15:29:31;9.10;82.60
55711;DHT22;41612;51.994;5.880;2023-12-20T15:31:57;9.10;82.50
55711;DHT22;41612;51.994;5.880;2023-12-20T15:34:23;9.10;82.60
55711;DHT22;41612;51.994;5.880;2023-12-20T15:36:49;9.10;82.70
55711;DHT22;41612;51.994;5.880;2023-12-20T15:39:14;9.10;82.70
55711;DHT22;41612;51.994;5.880;2023-12-20T15:41:40;9.00;83.00
55711;DHT22;41612;51.994;5.880;2023-12-20T15:44:06;9.00;83.50
55711;DHT22;41612;51.994;5.880;2023-12-20T15:46:32;8.90;83.50
55711;DHT22;41612;51.994;5.880;2023-12-20T15:48:58;8.90;83.80
55711;DHT22;41612;51.994;5.880;2023-12-20T15:51:23;8.80;84.20